Time;durP1;ratioP1;P1;durP2;ratioP2;P2;SDS_P1;SDS_P2;PMS_P1;PMS_P2;Temp;Humidity;BMP_temperature;BMP_pressure;BME280_temperature;BME280_humidity;BME280_pressure;Samples;Min_cycle;Max_cycle;Signal;HPM_P1;HPM_P2
2022/02/23 00:00:48;;;;;;;8.17;2.13;;;;;;;;;;5075074;28;20169;-82
2022/02/23 00:03:14;;;;;;;7.93;2.20;;;;;;;;;;5075531;28;20518;-82
2022/02/23 00:05:40;;;;;;;6.50;1.67;;;;;;;;;;5075104;28;20184;-82
2022/02/23 00:08:06;;;;;;;7.73;1.57;;;;;;;;;;5075542;28;20235;-82
2022/02/23 00:10:32;;;;;;;5.73;2.00;;;;;;;;;;5075472;28;20242;-82
2022/02/23 00:12:58;;;;;;;6.17;2.10;;;;;;;;;;5056865;28;20173;-82
2022/02/23 00:15:24;;;;;;;4.83;1.80;;;;;;;;;;5075862;28;20185;-82
2022/02/23 00:17:50;;;;;;;5.43;1.60;;;;;;;;;;5056579;28;20582;-82
2022/02/23 00:20:17;;;;;;;7.27;1.53;;;;;;;;;;5074771;28;20181;-82
2022/02/23 00:22:43;;;;;;;6.20;1.40;;;;;;;;;;5056752;28;20177;-82
2022/02/23 00:25:09;;;;;;;5.60;1.47;;;;;;;;;;5075325;28;20175;-82
2022/02/23 00:27:36;;;;;;;4.83;2.10;;;;;;;;;;5056707;28;20209;-83
2022/02/23 00:30:02;;;;;;;6.77;1.77;;;;;;;;;;5075016;28;20181;-82
2022/02/23 00:32:30;;;;;;;5.37;1.40;;;;;;;;;;5056613;28;20227;-82
2022/02/23 00:34:56;;;;;;;4.77;1.43;;;;;;;;;;5056511;28;20199;-82
2022/02/23 00:37:25;;;;;;;7.50;1.80;;;;;;;;;;5075575;28;20212;-81
2022/02/23 00:39:51;;;;;;;9.83;1.57;;;;;;;;;;5056557;28;20186;-82
2022/02/23 00:42:17;;;;;;;5.27;2.07;;;;;;;;;;5074471;28;20196;-82
2022/02/23 00:44:43;;;;;;;4.47;1.33;;;;;;;;;;5074975;28;20537;-82
2022/02/23 00:47:13;;;;;;;7.87;1.50;;;;;;;;;;5057024;28;20262;-82
2022/02/23 00:49:39;;;;;;;7.37;1.73;;;;;;;;;;5056294;28;20655;-82
2022/02/23 00:52:08;;;;;;;6.30;1.57;;;;;;;;;;5074236;28;20179;-82
2022/02/23 00:54:34;;;;;;;3.63;1.30;;;;;;;;;;5074325;28;20181;-82
2022/02/23 00:57:00;;;;;;;4.40;1.53;;;;;;;;;;5065838;28;20198;-82
2022/02/23 00:59:26;;;;;;;4.23;1.20;;;;;;;;;;5074394;28;20181;-82
2022/02/23 01:01:52;;;;;;;7.83;1.30;;;;;;;;;;5056185;28;20253;-81
2022/02/23 01:04:18;;;;;;;6.40;1.53;;;;;;;;;;5078827;28;20187;-82
2022/02/23 01:06:44;;;;;;;6.57;1.53;;;;;;;;;;5078296;28;20209;-82
2022/02/23 01:09:10;;;;;;;8.07;1.60;;;;;;;;;;5077544;28;20178;-82
2022/02/23 01:11:37;;;;;;;4.47;1.30;;;;;;;;;;5059780;28;20181;-82
2022/02/23 01:14:03;;;;;;;6.67;1.30;;;;;;;;;;5078048;28;20198;-82
2022/02/23 01:16:29;;;;;;;6.47;1.43;;;;;;;;;;5077726;28;20205;-83
2022/02/23 01:18:55;;;;;;;5.53;1.43;;;;;;;;;;5059381;28;20590;-83
2022/02/23 01:21:22;;;;;;;3.03;1.30;;;;;;;;;;5077864;28;20542;-82
2022/02/23 01:23:48;;;;;;;6.40;1.60;;;;;;;;;;5077478;28;20718;-83
2022/02/23 01:26:15;;;;;;;6.77;1.70;;;;;;;;;;5059817;28;20227;-83
2022/02/23 01:28:41;;;;;;;4.23;1.27;;;;;;;;;;5078057;28;20180;-81
2022/02/23 01:31:07;;;;;;;4.37;1.50;;;;;;;;;;5077869;28;20184;-81
2022/02/23 01:33:33;;;;;;;8.27;1.43;;;;;;;;;;5077656;28;20640;-81
2022/02/23 01:35:59;;;;;;;5.60;1.50;;;;;;;;;;5077960;28;20215;-82
2022/02/23 01:38:25;;;;;;;4.03;1.27;;;;;;;;;;5077648;28;20208;-82
2022/02/23 01:40:51;;;;;;;4.70;1.30;;;;;;;;;;5077856;28;20180;-82
2022/02/23 01:43:17;;;;;;;5.33;1.67;;;;;;;;;;5077504;28;20181;-82
2022/02/23 01:45:43;;;;;;;9.57;1.67;;;;;;;;;;5059584;28;20554;-82
2022/02/23 01:48:09;;;;;;;4.60;1.53;;;;;;;;;;5077761;28;20188;-81
2022/02/23 01:50:35;;;;;;;5.90;1.47;;;;;;;;;;5059212;28;20711;-81
2022/02/23 01:53:01;;;;;;;3.80;1.27;;;;;;;;;;5077802;28;20268;-82
2022/02/23 01:55:27;;;;;;;3.63;1.50;;;;;;;;;;5077409;28;20180;-82
2022/02/23 01:57:53;;;;;;;5.00;1.53;;;;;;;;;;5059013;28;20639;-82
2022/02/23 02:00:20;;;;;;;3.63;1.17;;;;;;;;;;5077610;28;20560;-81
2022/02/23 02:02:47;;;;;;;6.57;1.93;;;;;;;;;;5059026;28;20271;-82
2022/02/23 02:05:15;;;;;;;5.23;1.60;;;;;;;;;;5077354;28;20695;-84
2022/02/23 02:07:41;;;;;;;3.40;1.13;;;;;;;;;;5058942;28;20227;-81
2022/02/23 02:10:08;;;;;;;4.43;1.43;;;;;;;;;;5058866;28;20538;-82
2022/02/23 02:12:34;;;;;;;6.53;1.43;;;;;;;;;;5077237;28;20601;-82
2022/02/23 02:15:02;;;;;;;4.53;1.40;;;;;;;;;;5075655;28;20181;-82
2022/02/23 02:17:28;;;;;;;7.13;1.50;;;;;;;;;;5076421;28;20228;-82
2022/02/23 02:19:54;;;;;;;5.67;1.80;;;;;;;;;;5076689;28;20195;-82
2022/02/23 02:22:20;;;;;;;6.20;1.70;;;;;;;;;;5077084;28;20169;-82
2022/02/23 02:24:47;;;;;;;6.53;1.93;;;;;;;;;;5076346;28;20541;-82
2022/02/23 02:27:14;;;;;;;6.17;1.90;;;;;;;;;;5076460;28;20192;-82
2022/02/23 02:29:41;;;;;;;5.83;1.70;;;;;;;;;;5076853;28;20176;-82
2022/02/23 02:32:08;;;;;;;7.93;2.10;;;;;;;;;;5076934;28;20648;-82
2022/02/23 02:34:34;;;;;;;2.90;1.10;;;;;;;;;;5059101;28;20181;-82
2022/02/23 02:37:01;;;;;;;6.20;2.00;;;;;;;;;;5075797;28;20270;-81
2022/02/23 02:39:27;;;;;;;4.60;1.40;;;;;;;;;;5059155;28;20185;-82
2022/02/23 02:41:54;;;;;;;5.67;1.80;;;;;;;;;;5076772;28;20180;-82
2022/02/23 02:44:20;;;;;;;3.63;1.33;;;;;;;;;;5076405;28;20218;-81
2022/02/23 02:46:46;;;;;;;4.90;1.40;;;;;;;;;;5058206;28;20200;-82
2022/02/23 02:49:12;;;;;;;2.53;1.10;;;;;;;;;;5076756;28;20177;-82
2022/02/23 02:51:38;;;;;;;6.33;1.47;;;;;;;;;;5068864;28;20188;-83
2022/02/23 02:54:05;;;;;;;5.20;1.43;;;;;;;;;;5076559;28;20636;-82
2022/02/23 02:56:32;;;;;;;6.77;1.63;;;;;;;;;;5058724;28;20274;-82
2022/02/23 02:58:58;;;;;;;3.30;1.10;;;;;;;;;;5076205;28;20581;-82
2022/02/23 03:01:26;;;;;;;9.13;2.00;;;;;;;;;;5076494;28;20230;-81
2022/02/23 03:03:52;;;;;;;3.73;1.20;;;;;;;;;;5076226;28;20177;-81
2022/02/23 03:06:18;;;;;;;5.57;1.60;;;;;;;;;;5058498;28;20682;-81
2022/02/23 03:08:45;;;;;;;5.50;1.60;;;;;;;;;;5076553;28;20582;-82
2022/02/23 03:11:11;;;;;;;3.20;1.33;;;;;;;;;;5076612;28;20212;-82
2022/02/23 03:13:38;;;;;;;3.63;1.17;;;;;;;;;;5075420;28;20179;-82
2022/02/23 03:16:05;;;;;;;5.80;1.30;;;;;;;;;;5076447;28;20224;-82
2022/02/23 03:18:31;;;;;;;3.07;1.13;;;;;;;;;;5073675;28;20205;-82
2022/02/23 03:20:57;;;;;;;3.53;1.27;;;;;;;;;;5055519;28;20185;-82
2022/02/23 03:23:23;;;;;;;5.60;1.40;;;;;;;;;;5075697;28;20267;-82
2022/02/23 03:25:49;;;;;;;3.27;1.63;;;;;;;;;;5075547;28;20197;-82
2022/02/23 03:28:15;;;;;;;4.93;1.73;;;;;;;;;;5056151;28;20181;-83
2022/02/23 03:30:41;;;;;;;4.80;1.27;;;;;;;;;;5074490;28;20635;-82
2022/02/23 03:33:09;;;;;;;7.57;1.27;;;;;;;;;;5076211;28;20235;-82
2022/02/23 03:35:35;;;;;;;2.50;1.10;;;;;;;;;;5075817;28;20386;-82
2022/02/23 03:38:01;;;;;;;3.37;1.27;;;;;;;;;;5076273;28;20545;-82
2022/02/23 03:40:27;;;;;;;2.10;0.90;;;;;;;;;;5057045;28;20195;-82
2022/02/23 03:42:53;;;;;;;5.03;1.73;;;;;;;;;;5058193;28;20185;-82
2022/02/23 03:45:19;;;;;;;5.37;1.57;;;;;;;;;;5075903;28;20229;-82
2022/02/23 03:47:45;;;;;;;2.40;1.47;;;;;;;;;;5075893;28;20258;-83
2022/02/23 03:50:12;;;;;;;4.53;1.23;;;;;;;;;;5075863;28;20192;-82
2022/02/23 03:52:38;;;;;;;4.33;1.50;;;;;;;;;;5077208;28;20200;-83
2022/02/23 03:55:05;;;;;;;4.73;1.30;;;;;;;;;;5077683;28;20674;-82
2022/02/23 03:57:31;;;;;;;3.57;1.30;;;;;;;;;;5060061;28;20205;-82
2022/02/23 03:59:57;;;;;;;4.10;1.07;;;;;;;;;;5079837;28;20177;-84
2022/02/23 04:02:23;;;;;;;7.77;1.43;;;;;;;;;;5063563;28;20184;-82
2022/02/23 04:04:49;;;;;;;3.30;1.00;;;;;;;;;;5064030;28;20173;-82
2022/02/23 04:07:15;;;;;;;3.10;1.20;;;;;;;;;;5078172;28;20205;-83
2022/02/23 04:09:43;;;;;;;2.33;1.30;;;;;;;;;;5077244;28;20179;-83
2022/02/23 04:12:09;;;;;;;2.83;1.40;;;;;;;;;;5077345;28;20188;-82
2022/02/23 04:14:36;;;;;;;4.50;1.60;;;;;;;;;;5076703;28;20663;-82
2022/02/23 04:17:03;;;;;;;4.20;1.10;;;;;;;;;;5077073;28;20220;-83
2022/02/23 04:19:29;;;;;;;3.10;1.40;;;;;;;;;;5058862;28;20659;-83
2022/02/23 04:21:55;;;;;;;2.57;1.60;;;;;;;;;;5059026;28;20172;-83
2022/02/23 04:24:21;;;;;;;2.50;1.63;;;;;;;;;;5059735;28;20200;-84
2022/02/23 04:26:47;;;;;;;2.27;1.13;;;;;;;;;;5076802;28;20188;-82
2022/02/23 04:29:13;;;;;;;7.03;2.40;;;;;;;;;;5076528;28;20643;-82
2022/02/23 04:31:40;;;;;;;5.53;2.30;;;;;;;;;;5076576;28;20223;-82
2022/02/23 04:34:07;;;;;;;5.67;2.40;;;;;;;;;;5077162;28;20193;-82
2022/02/23 04:36:33;;;;;;;7.87;2.80;;;;;;;;;;5076944;28;20217;-82
2022/02/23 04:38:59;;;;;;;4.60;2.30;;;;;;;;;;5062300;28;20199;-82
2022/02/23 04:41:25;;;;;;;4.73;2.77;;;;;;;;;;5080305;28;20176;-82
2022/02/23 04:43:51;;;;;;;2.87;1.70;;;;;;;;;;5080695;28;20170;-82
2022/02/23 04:46:17;;;;;;;3.83;2.10;;;;;;;;;;5055356;28;20198;-83
2022/02/23 04:48:44;;;;;;;3.30;2.00;;;;;;;;;;5078482;28;20190;-83
2022/02/23 04:51:11;;;;;;;4.77;1.80;;;;;;;;;;5080147;28;20707;-83
2022/02/23 04:53:37;;;;;;;4.43;1.67;;;;;;;;;;5080022;28;20540;-83
2022/02/23 04:56:04;;;;;;;10.03;7.03;;;;;;;;;;5062166;28;20605;-83
2022/02/23 04:58:30;;;;;;;8.53;5.57;;;;;;;;;;5079573;28;20197;-83
2022/02/23 05:00:56;;;;;;;11.17;4.87;;;;;;;;;;5077359;28;20180;-83
2022/02/23 05:03:22;;;;;;;7.37;3.07;;;;;;;;;;5079748;28;20256;-83
2022/02/23 05:05:49;;;;;;;7.33;3.43;;;;;;;;;;5076509;28;20197;-83
2022/02/23 05:08:17;;;;;;;3.63;2.47;;;;;;;;;;5079494;28;20559;-83
2022/02/23 05:10:44;;;;;;;5.50;3.43;;;;;;;;;;5078448;28;20226;-83
2022/02/23 05:13:10;;;;;;;6.53;2.57;;;;;;;;;;5079496;28;20181;-84
2022/02/23 05:15:36;;;;;;;6.47;2.80;;;;;;;;;;5078400;28;20324;-83
2022/02/23 05:18:05;;;;;;;3.17;2.17;;;;;;;;;;5079491;28;20238;-83
2022/02/23 05:20:31;;;;;;;8.03;2.83;;;;;;;;;;5061441;28;20280;-83
2022/02/23 05:22:57;;;;;;;7.30;3.20;;;;;;;;;;5078692;28;20279;-83
2022/02/23 05:25:24;;;;;;;46.87;16.60;;;;;;;;;;5079754;28;20263;-83
2022/02/23 05:27:50;;;;;;;60.57;21.23;;;;;;;;;;5079186;28;20212;-83
2022/02/23 05:30:16;;;;;;;41.93;21.63;;;;;;;;;;5079102;28;20688;-82
2022/02/23 05:32:43;;;;;;;12.90;5.80;;;;;;;;;;5079741;28;20260;-82
2022/02/23 05:35:10;;;;;;;16.93;7.70;;;;;;;;;;5079639;28;20268;-83
2022/02/23 05:37:36;;;;;;;49.90;20.97;;;;;;;;;;5079588;28;20225;-83
2022/02/23 05:40:02;;;;;;;39.50;18.30;;;;;;;;;;5079575;28;20302;-83
2022/02/23 05:42:28;;;;;;;17.17;7.23;;;;;;;;;;5079067;28;20543;-84
2022/02/23 05:44:55;;;;;;;198.60;68.90;;;;;;;;;;5079343;28;20187;-83
2022/02/23 05:47:21;;;;;;;322.60;113.83;;;;;;;;;;5079745;28;20226;-83
2022/02/23 05:49:47;;;;;;;104.37;42.80;;;;;;;;;;5079115;28;20188;-82
2022/02/23 05:52:14;;;;;;;38.70;17.73;;;;;;;;;;5079372;28;20173;-82
2022/02/23 05:54:40;;;;;;;26.93;12.83;;;;;;;;;;5044532;28;20561;-82
2022/02/23 05:57:06;;;;;;;14.23;6.93;;;;;;;;;;5078772;28;20193;-82
2022/02/23 05:59:32;;;;;;;13.87;7.90;;;;;;;;;;5060160;28;20612;-81
2022/02/23 06:01:58;;;;;;;12.33;7.83;;;;;;;;;;5060616;28;20183;-82
2022/02/23 06:04:24;;;;;;;13.57;7.17;;;;;;;;;;5078523;28;20256;-82
2022/02/23 06:06:50;;;;;;;14.33;6.63;;;;;;;;;;5060074;28;20570;-83
2022/02/23 06:09:16;;;;;;;8.03;5.17;;;;;;;;;;5077638;28;20652;-83
2022/02/23 06:11:43;;;;;;;7.70;3.90;;;;;;;;;;5077722;28;20252;-83
2022/02/23 06:14:10;;;;;;;4.53;2.70;;;;;;;;;;5077568;28;20225;-83
2022/02/23 06:16:36;;;;;;;6.63;2.73;;;;;;;;;;5078265;28;20288;-82
2022/02/23 06:19:02;;;;;;;4.63;2.70;;;;;;;;;;5077930;28;20668;-82
2022/02/23 06:21:28;;;;;;;7.83;2.40;;;;;;;;;;5077680;28;20262;-82
2022/02/23 06:23:54;;;;;;;4.70;2.03;;;;;;;;;;5077872;28;20659;-82
2022/02/23 06:26:20;;;;;;;4.40;2.10;;;;;;;;;;5077747;28;20197;-81
2022/02/23 06:28:47;;;;;;;5.00;2.00;;;;;;;;;;5078117;28;20188;-82
2022/02/23 06:31:13;;;;;;;4.20;1.77;;;;;;;;;;5077784;28;20207;-83
2022/02/23 06:33:39;;;;;;;6.27;2.10;;;;;;;;;;5077881;28;20181;-82
2022/02/23 06:36:06;;;;;;;7.80;3.70;;;;;;;;;;5075988;28;20221;-82
2022/02/23 06:38:32;;;;;;;6.97;3.53;;;;;;;;;;5097599;22;20524;-81
2022/02/23 06:40:58;;;;;;;8.70;3.27;;;;;;;;;;5040449;28;20216;-81
2022/02/23 06:43:24;;;;;;;16.20;5.80;;;;;;;;;;5058204;28;20245;-81
2022/02/23 06:45:51;;;;;;;6.30;3.80;;;;;;;;;;5058765;28;20701;-81
2022/02/23 06:48:19;;;;;;;4.07;3.30;;;;;;;;;;5058483;28;20560;-81
2022/02/23 06:50:45;;;;;;;8.77;3.50;;;;;;;;;;5071744;28;20592;-81
2022/02/23 06:53:14;;;;;;;7.87;3.60;;;;;;;;;;5069613;28;20624;-81
2022/02/23 06:55:43;;;;;;;3.10;2.30;;;;;;;;;;5066176;28;20659;-81
2022/02/23 06:58:10;;;;;;;4.80;2.33;;;;;;;;;;5066141;28;20280;-81
2022/02/23 07:00:37;;;;;;;3.30;2.00;;;;;;;;;;5039449;28;20185;-81
2022/02/23 07:03:03;;;;;;;8.00;2.53;;;;;;;;;;5047821;28;20597;-81
2022/02/23 07:05:29;;;;;;;6.77;3.13;;;;;;;;;;5056796;28;20173;-81
2022/02/23 07:08:04;;;;;;;5.23;2.70;;;;;;;;;;5047813;28;20173;-81
2022/02/23 07:10:30;;;;;;;5.70;3.80;;;;;;;;;;5076901;28;20203;-81
2022/02/23 07:12:57;;;;;;;7.93;2.77;;;;;;;;;;5076555;28;20185;-81
2022/02/23 07:15:24;;;;;;;4.23;2.50;;;;;;;;;;5059327;28;20188;-81
2022/02/23 07:17:50;;;;;;;5.20;2.23;;;;;;;;;;5076567;28;20196;-81
2022/02/23 07:20:16;;;;;;;8.13;2.70;;;;;;;;;;5076856;28;20205;-81
2022/02/23 07:22:43;;;;;;;4.43;2.63;;;;;;;;;;5077776;28;20177;-81
2022/02/23 07:25:10;;;;;;;4.83;2.63;;;;;;;;;;5078058;28;20227;-81
2022/02/23 07:27:36;;;;;;;3.97;2.37;;;;;;;;;;5065791;28;20166;-81
2022/02/23 07:30:04;;;;;;;4.90;2.17;;;;;;;;;;5048680;28;20194;-81
2022/02/23 07:32:32;;;;;;;4.73;2.47;;;;;;;;;;5071634;28;20170;-81
2022/02/23 07:34:59;;;;;;;5.43;3.03;;;;;;;;;;5070042;28;20175;-81
2022/02/23 07:37:25;;;;;;;5.97;3.47;;;;;;;;;;5062968;28;20169;-81
2022/02/23 07:39:52;;;;;;;9.43;3.93;;;;;;;;;;5056137;28;20221;-81
2022/02/23 07:42:19;;;;;;;7.13;3.00;;;;;;;;;;5037783;28;20174;-81
2022/02/23 07:44:46;;;;;;;6.50;3.43;;;;;;;;;;5055293;28;20180;-81
2022/02/23 07:47:12;;;;;;;8.80;3.80;;;;;;;;;;5055264;28;20177;-81
2022/02/23 07:49:38;;;;;;;9.93;4.40;;;;;;;;;;5060416;28;20248;-81
2022/02/23 07:52:07;;;;;;;6.50;4.10;;;;;;;;;;5069195;28;20170;-80
2022/02/23 07:54:33;;;;;;;6.97;4.23;;;;;;;;;;5056552;28;20655;-82
2022/02/23 07:57:00;;;;;;;6.83;4.23;;;;;;;;;;5061364;28;20198;-81
2022/02/23 07:59:26;;;;;;;7.43;4.77;;;;;;;;;;5065436;28;20205;-81
2022/02/23 08:01:53;;;;;;;5.20;3.83;;;;;;;;;;5062604;28;20192;-83
2022/02/23 08:04:20;;;;;;;5.67;3.90;;;;;;;;;;5068128;28;20303;-82
2022/02/23 08:06:46;;;;;;;5.10;4.10;;;;;;;;;;5041372;28;20177;-82
2022/02/23 08:09:12;;;;;;;4.23;3.83;;;;;;;;;;5066419;28;20338;-82
2022/02/23 08:11:40;;;;;;;6.17;4.13;;;;;;;;;;5052026;28;20652;-81
2022/02/23 08:14:07;;;;;;;6.70;4.23;;;;;;;;;;5066494;28;20177;-82
2022/02/23 08:19:31;;;;;;;5.97;4.17;;;;;;;;;;5059739;28;20223;-81
2022/02/23 08:22:18;;;;;;;6.27;3.83;;;;;;;;;;5064313;28;20650;-82
2022/02/23 08:24:45;;;;;;;4.57;3.60;;;;;;;;;;5066164;28;20176;-82
2022/02/23 08:27:13;;;;;;;4.23;3.30;;;;;;;;;;5050640;28;20169;-82
2022/02/23 08:29:40;;;;;;;6.30;3.03;;;;;;;;;;5061243;28;20200;-82
2022/02/23 08:32:08;;;;;;;6.73;3.00;;;;;;;;;;5051244;28;20245;-82
2022/02/23 08:34:34;;;;;;;8.70;3.43;;;;;;;;;;5060931;28;20279;-82
2022/02/23 08:37:00;;;;;;;5.03;2.73;;;;;;;;;;5067105;28;20203;-82
2022/02/23 08:39:26;;;;;;;4.67;3.10;;;;;;;;;;5072723;28;20244;-82
2022/02/23 08:41:52;;;;;;;4.87;3.20;;;;;;;;;;5077149;28;20165;-82
2022/02/23 08:44:18;;;;;;;6.27;3.27;;;;;;;;;;5052062;28;20180;-82
2022/02/23 08:46:44;;;;;;;6.43;3.27;;;;;;;;;;5037695;28;20717;-82
2022/02/23 08:49:12;;;;;;;4.83;3.27;;;;;;;;;;5063491;28;20664;-82
2022/02/23 08:51:39;;;;;;;5.80;3.30;;;;;;;;;;5051399;28;20598;-82
2022/02/23 08:54:05;;;;;;;5.87;3.00;;;;;;;;;;5063179;28;20180;-82
2022/02/23 08:56:32;;;;;;;4.63;2.63;;;;;;;;;;5074691;28;20176;-82
2022/02/23 08:58:58;;;;;;;5.80;3.10;;;;;;;;;;5074453;28;20209;-82
2022/02/23 09:01:29;;;;;;;7.83;2.97;;;;;;;;;;5075683;28;20169;-82
2022/02/23 09:03:55;;;;;;;6.10;3.33;;;;;;;;;;5074581;28;20529;-82
2022/02/23 09:06:23;;;;;;;7.67;3.40;;;;;;;;;;5075457;28;20181;-82
2022/02/23 09:08:49;;;;;;;3.67;2.53;;;;;;;;;;5057281;28;20198;-82
2022/02/23 09:11:15;;;;;;;4.43;2.67;;;;;;;;;;5060311;28;20173;-82
2022/02/23 09:13:41;;;;;;;4.70;3.20;;;;;;;;;;5075367;28;20274;-82
2022/02/23 09:16:07;;;;;;;2.60;1.90;;;;;;;;;;5075994;28;20174;-82
2022/02/23 09:18:33;;;;;;;6.57;2.60;;;;;;;;;;5057553;28;20208;-82
2022/02/23 09:21:01;;;;;;;3.97;1.90;;;;;;;;;;5057244;28;20169;-82
2022/02/23 09:23:27;;;;;;;6.43;2.00;;;;;;;;;;5059779;28;20177;-82
2022/02/23 09:25:54;;;;;;;5.47;2.63;;;;;;;;;;5077012;28;20536;-82
2022/02/23 09:28:20;;;;;;;5.77;2.70;;;;;;;;;;5067749;28;20181;-82
2022/02/23 09:30:46;;;;;;;4.53;3.10;;;;;;;;;;5041278;28;20223;-82
2022/02/23 09:33:14;;;;;;;4.90;3.13;;;;;;;;;;5069491;28;20174;-82
2022/02/23 09:35:40;;;;;;;3.77;2.60;;;;;;;;;;5079230;28;20181;-82
2022/02/23 09:38:06;;;;;;;4.93;2.40;;;;;;;;;;5080534;28;20219;-82
2022/02/23 09:40:32;;;;;;;4.73;2.07;;;;;;;;;;5080857;28;20251;-82
2022/02/23 09:42:58;;;;;;;4.67;1.80;;;;;;;;;;5081184;28;20206;-82
2022/02/23 09:45:26;;;;;;;5.83;2.53;;;;;;;;;;5078214;28;20176;-82
2022/02/23 09:47:52;;;;;;;4.17;2.03;;;;;;;;;;5078699;28;20181;-82
2022/02/23 09:50:20;;;;;;;4.93;1.80;;;;;;;;;;5078748;28;20197;-82
2022/02/23 09:52:47;;;;;;;3.87;1.77;;;;;;;;;;5065633;28;20169;-82
2022/02/23 09:55:13;;;;;;;5.37;1.60;;;;;;;;;;5063061;28;20212;-81
2022/02/23 09:57:40;;;;;;;9.33;2.00;;;;;;;;;;5064284;28;20202;-82
2022/02/23 10:00:06;;;;;;;6.87;2.23;;;;;;;;;;5058714;28;20208;-82
2022/02/23 10:02:35;;;;;;;4.90;1.90;;;;;;;;;;5070494;28;20197;-82
2022/02/23 10:05:02;;;;;;;5.07;1.80;;;;;;;;;;5059781;28;20170;-82
2022/02/23 10:07:30;;;;;;;4.47;1.70;;;;;;;;;;5070420;28;20169;-82
2022/02/23 10:09:57;;;;;;;5.03;1.70;;;;;;;;;;5067548;28;20284;-82
2022/02/23 10:12:26;;;;;;;3.70;1.80;;;;;;;;;;5058029;28;20636;-82
2022/02/23 10:15:12;;;;;;;5.83;2.00;;;;;;;;;;5061526;28;20531;-82
2022/02/23 10:17:44;;;;;;;6.43;1.60;;;;;;;;;;5057696;28;20192;-82
2022/02/23 10:20:27;;;;;;;4.47;1.50;;;;;;;;;;5058570;28;20251;-82
2022/02/23 10:23:02;;;;;;;4.37;1.37;;;;;;;;;;5058606;28;20224;-82
2022/02/23 10:25:29;;;;;;;9.73;1.60;;;;;;;;;;5058167;28;20659;-82
2022/02/23 10:28:26;;;;;;;3.80;1.97;;;;;;;;;;5058050;28;20180;-82
2022/02/23 10:30:55;;;;;;;3.33;1.00;;;;;;;;;;5039095;28;20543;-82
2022/02/23 10:33:26;;;;;;;7.77;2.20;;;;;;;;;;5058058;28;20663;-82
2022/02/23 10:36:00;;;;;;;6.40;1.37;;;;;;;;;;5072687;28;20540;-82
2022/02/23 10:38:27;;;;;;;4.77;1.70;;;;;;;;;;5072832;28;20217;-83
2022/02/23 10:40:54;;;;;;;5.13;1.50;;;;;;;;;;5040068;28;20188;-82
2022/02/23 10:43:50;;;;;;;2.80;1.20;;;;;;;;;;5056984;28;20174;-82
2022/02/23 10:46:17;;;;;;;4.23;1.50;;;;;;;;;;5036630;28;20190;-83
2022/02/23 10:48:50;;;;;;;3.67;1.47;;;;;;;;;;5057390;28;20211;-82
2022/02/23 10:51:17;;;;;;;4.93;1.67;;;;;;;;;;5051115;28;20547;-82
2022/02/23 10:53:44;;;;;;;5.43;1.27;;;;;;;;;;5057482;28;20181;-82
2022/02/23 10:56:23;;;;;;;3.90;1.60;;;;;;;;;;5057870;28;20258;-82
2022/02/23 10:58:59;;;;;;;6.40;1.80;;;;;;;;;;5058121;28;20200;-83
2022/02/23 11:01:26;;;;;;;3.67;1.60;;;;;;;;;;5057977;28;20177;-83
2022/02/23 11:03:52;;;;;;;5.77;1.60;;;;;;;;;;5048660;28;20171;-83
2022/02/23 11:06:18;;;;;;;5.10;2.13;;;;;;;;;;5071830;28;20185;-83
2022/02/23 11:08:49;;;;;;;5.27;2.00;;;;;;;;;;5064601;28;20228;-83
2022/02/23 11:11:15;;;;;;;4.93;1.40;;;;;;;;;;5060411;28;20261;-84
2022/02/23 11:13:43;;;;;;;2.93;1.70;;;;;;;;;;5058835;28;20256;-83
2022/02/23 11:16:09;;;;;;;3.47;1.87;;;;;;;;;;5058615;28;20242;-83
2022/02/23 11:18:36;;;;;;;8.27;2.80;;;;;;;;;;5058645;28;20217;-83
2022/02/23 11:21:02;;;;;;;2.53;1.40;;;;;;;;;;5060286;28;20588;-83
2022/02/23 11:23:29;;;;;;;2.83;1.77;;;;;;;;;;5078405;28;20268;-83
2022/02/23 11:25:56;;;;;;;3.97;1.63;;;;;;;;;;5041972;28;20664;-83
2022/02/23 11:28:24;;;;;;;4.33;1.90;;;;;;;;;;5057815;28;20189;-83
2022/02/23 11:30:52;;;;;;;7.93;1.90;;;;;;;;;;5057596;28;20645;-83
2022/02/23 11:33:22;;;;;;;4.60;2.00;;;;;;;;;;5057699;28;20177;-83
2022/02/23 11:35:49;;;;;;;3.27;1.33;;;;;;;;;;5058079;28;20669;-83
2022/02/23 11:38:20;;;;;;;4.90;1.60;;;;;;;;;;5040486;28;20198;-83
2022/02/23 11:40:51;;;;;;;2.50;1.57;;;;;;;;;;5059024;28;20202;-83
2022/02/23 11:43:24;;;;;;;8.27;1.90;;;;;;;;;;5058869;28;20235;-83
2022/02/23 11:51:37;;;;;;;8.97;5.13;;;;;;;;;;5061986;28;20263;-83
2022/02/23 11:54:03;;;;;;;1.80;1.10;;;;;;;;;;5077613;28;20307;-83
2022/02/23 11:56:48;;;;;;;3.03;1.70;;;;;;;;;;5077095;28;20182;-83
2022/02/23 12:02:17;;;;;;;10.80;9.60;;;;;;;;;;5056906;28;20574;-83
2022/02/23 12:04:47;;;;;;;4.47;3.00;;;;;;;;;;5057958;28;20173;-83
2022/02/23 12:07:14;;;;;;;2.13;0.80;;;;;;;;;;5057787;28;20240;-83
2022/02/23 12:10:04;;;;;;;6.07;1.40;;;;;;;;;;5058366;28;20221;-83
2022/02/23 12:12:31;;;;;;;3.03;0.90;;;;;;;;;;5034758;28;20537;-83
2022/02/23 12:14:57;;;;;;;1.87;0.70;;;;;;;;;;5070384;28;20325;-83
2022/02/23 12:17:41;;;;;;;2.03;1.03;;;;;;;;;;5065454;28;20220;-84
2022/02/23 12:20:08;;;;;;;1.60;1.10;;;;;;;;;;5039046;28;20193;-83
2022/02/23 12:22:37;;;;;;;2.80;1.20;;;;;;;;;;5057287;28;20172;-83
2022/02/23 12:25:06;;;;;;;3.43;1.30;;;;;;;;;;5062669;28;20166;-83
2022/02/23 12:27:34;;;;;;;1.90;1.30;;;;;;;;;;5068403;28;20204;-83
2022/02/23 12:30:01;;;;;;;2.93;1.50;;;;;;;;;;5038581;28;20196;-83
2022/02/23 12:32:27;;;;;;;2.03;1.40;;;;;;;;;;5064549;28;20686;-83
2022/02/23 12:34:58;;;;;;;2.57;1.37;;;;;;;;;;5069737;28;20197;-83
2022/02/23 12:37:24;;;;;;;2.80;1.60;;;;;;;;;;5056515;28;20177;-83
2022/02/23 12:39:51;;;;;;;2.03;1.00;;;;;;;;;;5080686;22;20267;-83
2022/02/23 12:42:17;;;;;;;3.13;1.43;;;;;;;;;;5037144;28;20180;-83
2022/02/23 12:44:47;;;;;;;1.90;1.43;;;;;;;;;;5053341;28;20200;-83
2022/02/23 12:47:15;;;;;;;2.70;1.37;;;;;;;;;;5053528;28;20182;-84
2022/02/23 12:49:42;;;;;;;2.80;1.83;;;;;;;;;;5055666;28;20206;-83
2022/02/23 12:52:09;;;;;;;2.53;1.53;;;;;;;;;;5037459;28;20187;-83
2022/02/23 12:54:35;;;;;;;1.40;1.13;;;;;;;;;;5056318;28;20236;-81
2022/02/23 12:57:02;;;;;;;2.20;1.27;;;;;;;;;;5055802;28;20649;-83
2022/02/23 12:59:29;;;;;;;3.10;1.33;;;;;;;;;;5058824;28;20285;-83
2022/02/23 13:02:02;;;;;;;2.27;1.20;;;;;;;;;;5060061;28;20203;-83
2022/02/23 13:04:40;;;;;;;2.37;1.27;;;;;;;;;;5050353;28;20172;-82
2022/02/23 13:07:09;;;;;;;1.33;1.23;;;;;;;;;;5060034;28;20230;-84
2022/02/23 13:09:39;;;;;;;1.50;1.13;;;;;;;;;;5059274;28;20276;-83
2022/02/23 13:12:08;;;;;;;3.50;1.23;;;;;;;;;;5059464;28;20179;-84
2022/02/23 13:14:35;;;;;;;2.67;1.27;;;;;;;;;;5042628;28;20185;-83
2022/02/23 13:17:02;;;;;;;1.63;1.07;;;;;;;;;;5042143;28;20192;-83
2022/02/23 13:19:29;;;;;;;3.23;1.40;;;;;;;;;;5058151;28;20222;-84
2022/02/23 13:21:56;;;;;;;1.53;1.23;;;;;;;;;;5058768;28;20178;-83
2022/02/23 13:24:29;;;;;;;1.97;1.17;;;;;;;;;;5058316;28;20235;-83
2022/02/23 13:26:55;;;;;;;2.43;0.90;;;;;;;;;;5058065;28;20232;-83
2022/02/23 13:29:23;;;;;;;2.43;1.40;;;;;;;;;;5058238;28;20189;-83
2022/02/23 13:31:55;;;;;;;2.43;1.17;;;;;;;;;;5058036;28;20174;-83
2022/02/23 13:34:22;;;;;;;2.40;0.97;;;;;;;;;;5058752;28;20550;-84
2022/02/23 13:36:49;;;;;;;2.13;1.07;;;;;;;;;;5058868;28;20178;-84
2022/02/23 13:39:20;;;;;;;2.13;0.97;;;;;;;;;;5040278;28;20281;-84
2022/02/23 13:41:54;;;;;;;2.57;1.43;;;;;;;;;;5058903;28;20676;-83
2022/02/23 13:44:21;;;;;;;2.30;1.20;;;;;;;;;;5040071;28;20180;-81
2022/02/23 13:46:50;;;;;;;3.83;0.97;;;;;;;;;;5056631;28;20252;-83
2022/02/23 13:49:16;;;;;;;2.47;1.00;;;;;;;;;;5039863;28;20181;-82
2022/02/23 13:51:43;;;;;;;1.60;0.80;;;;;;;;;;5057063;28;20178;-82
2022/02/23 13:54:09;;;;;;;2.83;0.80;;;;;;;;;;5057053;28;20229;-82
2022/02/23 13:56:35;;;;;;;1.30;0.70;;;;;;;;;;5057558;28;20269;-83
2022/02/23 13:59:02;;;;;;;1.47;0.70;;;;;;;;;;5057338;28;20200;-84
2022/02/23 14:01:28;;;;;;;2.87;0.90;;;;;;;;;;5057787;28;20205;-84
2022/02/23 14:03:55;;;;;;;1.77;0.80;;;;;;;;;;5057277;28;20180;-84
2022/02/23 14:06:24;;;;;;;2.30;1.37;;;;;;;;;;5056900;28;20184;-85
2022/02/23 14:08:59;;;;;;;1.93;0.73;;;;;;;;;;5056291;28;20185;-83
2022/02/23 14:11:27;;;;;;;6.67;1.40;;;;;;;;;;5056797;28;20202;-84
2022/02/23 14:13:55;;;;;;;0.90;0.77;;;;;;;;;;5057606;28;20238;-84
2022/02/23 14:16:30;;;;;;;1.63;0.80;;;;;;;;;;5057431;28;20179;-84
2022/02/23 14:18:56;;;;;;;1.53;0.73;;;;;;;;;;5057031;28;20198;-84
2022/02/23 14:21:24;;;;;;;2.87;0.80;;;;;;;;;;5057325;28;20194;-84
2022/02/23 14:24:05;;;;;;;0.93;0.60;;;;;;;;;;5057241;28;20670;-84
2022/02/23 14:26:31;;;;;;;1.27;0.80;;;;;;;;;;5050379;28;20190;-84
2022/02/23 14:28:59;;;;;;;1.80;0.50;;;;;;;;;;5051779;28;20184;-84
2022/02/23 14:31:25;;;;;;;1.60;0.70;;;;;;;;;;5040070;28;20203;-84
2022/02/23 14:33:52;;;;;;;1.37;0.83;;;;;;;;;;5057245;28;20613;-84
2022/02/23 14:36:19;;;;;;;3.10;0.70;;;;;;;;;;5057478;28;20185;-83
2022/02/23 14:38:45;;;;;;;2.13;0.70;;;;;;;;;;5056863;28;20200;-84
2022/02/23 14:41:11;;;;;;;1.53;0.57;;;;;;;;;;5056553;28;20213;-84
2022/02/23 14:43:37;;;;;;;2.53;0.83;;;;;;;;;;5057692;28;20228;-85
2022/02/23 14:46:03;;;;;;;1.13;0.60;;;;;;;;;;5056266;28;20191;-85
2022/02/23 14:48:29;;;;;;;1.43;0.63;;;;;;;;;;5056331;28;20188;-84
2022/02/23 14:50:56;;;;;;;1.17;0.70;;;;;;;;;;5056390;28;20234;-85
2022/02/23 14:53:22;;;;;;;1.37;0.80;;;;;;;;;;5045351;28;20267;-84